Flight Track Log - Related Links

Times and Time Zones

All times are in EDT time to prevent confusion due to time zone crossing. See the ASQ4633 flight status page for this flight to view local times or setup timezone preferences in your user account.

Time Position Orientation Groundspeed Altitude Reporting Facility
EDT Latitude Longitude Course Direction KTS MPH feet Rate Location/Type
Sat 10:08:53 AM 34.8203 -82.2272 North 212 244 5,400  Level Atlanta Center
Sat 10:09:53 AM 34.8569 -82.1708 52° Northeast 266 306 6,900 1,850 Climbing Atlanta Center
Sat 10:10:00 AM 35.1277 -81.9167 North  Level FlightAware Approximate
Sat 10:10:53 AM 34.9058 -82.0986 50° Northeast 272 313 9,100  Level Atlanta Center
Sat 10:11:00 AM 35.2239 -81.9333 North  Level FlightAware Approximate
Sat 10:11:53 AM 34.9694 -82.0211 45° Northeast 277 319 11,100  Level Atlanta Center
Sat 10:12:00 AM 35.3215 -81.9333 North  Level FlightAware Approximate
Sat 10:12:53 AM 35.0328 -81.9436 45° Northeast 291 335 12,000  Level Atlanta Center
Sat 10:13:00 AM 35.4191 -81.9333 360° North  Level FlightAware Approximate
Sat 10:13:53 AM 35.1264 -81.9311 North 306 352 13,500  Level Atlanta Center
Sat 10:14:00 AM 35.5167 -81.9333 North  Level FlightAware Approximate
Sat 10:14:53 AM 35.2111 -81.8781 27° Northeast 325 374 15,300  Level Atlanta Center
Sat 10:15:53 AM 35.2611 -81.7647 62° Northeast 339 390 17,200 1,650 Climbing Atlanta Center
Sat 10:16:53 AM 35.3092 -81.6567 61° Northeast 356 410 18,600 1,650 Climbing Atlanta Center
Sat 10:17:53 AM 35.3592 -81.5456 61° Northeast 363 418 20,500 1,850 Climbing Atlanta Center
Sat 10:18:53 AM 35.4069 -81.4372 62° Northeast 358 412 22,300 1,250 Climbing Atlanta Center
Sat 10:19:53 AM 35.4567 -81.3233 62° Northeast 358 412 23,000 1,050 Climbing Atlanta Center
Sat 10:20:53 AM 35.5081 -81.2017 63° Northeast 383 441 24,400 1,400 Climbing Atlanta Center
Sat 10:21:53 AM 35.5636 -81.0800 61° Northeast 400 460 25,800 1,450 Climbing Atlanta Center
Sat 10:22:53 AM 35.6169 -80.9606 61° Northeast 400 460 27,300 1,500 Climbing Atlanta Center
Sat 10:23:53 AM 35.6703 -80.8383 62° Northeast 400 460 28,800 1,500 Climbing Atlanta Center
Sat 10:24:53 AM 35.7214 -80.7211 62° Northeast 395 455 30,300 688 Climbing Atlanta Center
Sat 10:27:05 AM 35.8581 -80.4794 55° Northeast 412 474 31,000 221 Climbing Washington Center
Sat 10:28:03 AM 35.9381 -80.3586 51° Northeast 442 509 31,000  Level Washington Center
Sat 10:29:04 AM 36.0222 -80.2303 51° Northeast 471 542 31,000  Level Washington Center
Sat 10:30:05 AM 36.1067 -80.1014 51° Northeast 477 549 31,000  Level Washington Center
Sat 10:31:03 AM 36.1950 -79.9650 51° Northeast 471 542 31,000  Level Washington Center
Sat 10:32:04 AM 36.2792 -79.8356 51° Northeast 471 542 31,000  Level Washington Center
Sat 10:33:05 AM 36.3542 -79.7186 51° Northeast 477 549 31,000  Level Washington Center
Sat 10:34:05 AM 36.4425 -79.5758 52° Northeast 477 549 31,000  Level Washington Center
Sat 10:35:03 AM 36.5258 -79.4458 51° Northeast 477 549 31,000  Level Washington Center
Sat 10:36:05 AM 36.6072 -79.3153 52° Northeast 477 549 31,000  Level Washington Center
Sat 10:37:05 AM 36.6819 -79.1972 52° Northeast 477 549 31,000  Level Washington Center
Sat 10:38:06 AM 36.7628 -79.0686 52° Northeast 471 542 31,000  Level Washington Center
Sat 10:39:04 AM 36.8436 -78.9425 51° Northeast 471 542 31,000  Level Washington Center
Sat 10:40:05 AM 36.9308 -78.8033 52° Northeast 471 542 31,000  Level Washington Center
Sat 10:41:03 AM 37.0114 -78.6742 52° Northeast 471 542 31,000  Level Washington Center
Sat 10:42:03 AM 37.0919 -78.5444 52° Northeast 471 542 31,000  Level Washington Center
Sat 10:43:04 AM 37.1533 -78.4167 59° Northeast 471 542 31,000  Level Washington Center
Sat 10:44:04 AM 37.1719 -78.2428 82° East 471 542 31,000  Level Washington Center
Sat 10:45:05 AM 37.1886 -78.0556 84° East 481 554 31,000  Level Washington Center
Sat 10:46:05 AM 37.2786 -77.9383 46° Northeast 451 519 31,000  Level Washington Center
Sat 10:47:03 AM 37.3844 -77.8553 32° Northeast 433 498 31,000  Level Washington Center
Sat 10:48:03 AM 37.4883 -77.7667 34° Northeast 433 498 31,000  Level Washington Center
Sat 10:49:04 AM 37.5897 -77.6833 33° Northeast 438 504 31,000  Level Washington Center
Sat 10:50:05 AM 37.6933 -77.6022 32° Northeast 433 498 31,000  Level Washington Center
Sat 10:51:05 AM 37.7969 -77.5156 33° Northeast 438 504 31,000  Level Washington Center
Sat 10:52:03 AM 37.8986 -77.4286 34° Northeast 445 512 31,000  Level Washington Center
Sat 10:53:03 AM 38.0019 -77.3442 33° Northeast 445 512 31,000  Level Washington Center
Sat 10:54:03 AM 38.0928 -77.2672 34° Northeast 445 512 31,000  Level Washington Center
Sat 10:55:04 AM 38.1939 -77.1822 33° Northeast 445 512 31,000  Level Washington Center
Sat 10:56:06 AM 38.3058 -77.0867 34° Northeast 445 512 31,000  Level Washington Center
Sat 10:57:03 AM 38.3942 -77.0117 34° Northeast 432 497 31,000 -153 Level Washington Center
Sat 10:58:04 AM 38.4931 -76.9286 33° Northeast 427 491 30,700 -639 Descending Washington Center
Sat 10:59:05 AM 38.5919 -76.8428 34° Northeast 427 491 29,700 -1,059 Descending Washington Center
Sat 11:00:03 AM 38.6950 -76.7539 34° Northeast 427 491 28,600 -1,169 Descending Washington Center
Sat 11:01:03 AM 38.7878 -76.6517 41° Northeast 433 498 27,400 -793 Descending Washington Center
Sat 11:02:04 AM 38.8742 -76.5514 42° Northeast 428 493 27,000 -198 Descending Washington Center
Sat 11:03:04 AM 38.9603 -76.4486 43° Northeast 416 479 27,000  Level Washington Center
Sat 11:04:05 AM 39.0486 -76.3481 41° Northeast 416 479 27,000  Level Washington Center
Sat 11:05:03 AM 39.1347 -76.2444 43° Northeast 416 479 27,000  Level Washington Center
Sat 11:06:03 AM 39.2269 -76.1408 41° Northeast 428 493 27,000  Level Washington Center
Sat 11:07:03 AM 39.3169 -76.0394 41° Northeast 428 493 27,000  Level Washington Center
Sat 11:08:04 AM 39.4025 -75.9381 42° Northeast 428 493 27,000 -49 Level Washington Center
Sat 11:09:05 AM 39.4903 -75.8308 43° Northeast 422 486 26,900 -793 Descending Washington Center
Sat 11:10:05 AM 39.5739 -75.7342 42° Northeast 416 479 25,400 -1,866 Descending Washington Center
Sat 11:11:04 AM 39.6572 -75.6347 43° Northeast 411 473 23,200 -2,168 Descending Washington Center
Sat 11:12:04 AM 39.7406 -75.5347 43° Northeast 406 467 21,100 -1,983 Descending Washington Center
Sat 11:13:05 AM 39.8156 -75.4431 43° Northeast 391 450 19,200 -1,967 Descending Washington Center
Sat 11:14:06 AM 39.8925 -75.3481 43° Northeast 379 436 17,100 -2,085 Descending Washington Center
Sat 11:15:03 AM 39.9672 -75.2611 42° Northeast 367 422 15,100 -2,000 Descending Washington Center
Sat 11:16:03 AM 40.0358 -75.1769 43° Northeast 350 403 13,200 -1,640 Descending Washington Center
Sat 11:17:33 AM 40.1500 -75.0500 40° Northeast 329 379 11,000 -1,375 Descending New York TRACON
Sat 11:18:27 AM 40.2000 -74.9667 52° Northeast 286 329 9,900 -1,400 Descending New York TRACON
Sat 11:19:33 AM 40.2500 -74.9000 45° Northeast 267 307 8,200 -900 Descending New York TRACON
Sat 11:20:27 AM 40.3000 -74.8333 45° Northeast 262 302 8,100 -300 Descending New York TRACON
Sat 11:21:33 AM 40.3500 -74.7500 52° Northeast 265 305 7,600 -905 Descending New York TRACON
Sat 11:22:33 AM 40.3667 -74.6667 75° East 255 293 6,200 -1,300 Descending New York TRACON
Sat 11:23:33 AM 40.3833 -74.5667 78° East 259 298 5,000 -600 Descending New York TRACON
Sat 11:24:33 AM 40.3833 -74.4833 90° East 215 247 5,000 -200 Level New York TRACON
Sat 11:25:33 AM 40.4000 -74.4167 72° East 184 212 4,600 -550 Descending New York TRACON
Sat 11:26:33 AM 40.4167 -74.3667 66° East 182 209 3,900 -800 Descending New York TRACON
Sat 11:27:33 AM 40.4500 -74.3167 49° Northeast 178 205 3,000 -450 Descending New York TRACON
Sat 11:28:33 AM 40.5000 -74.2833 27° Northeast 173 199 3,000  Level New York TRACON

Login

Don't have an account? Register now (free) for customized features, flight alerts, and more!